Time;durP1;ratioP1;P1;durP2;ratioP2;P2;SDS_P1;SDS_P2;PMS_P1;PMS_P2;Temp;Humidity;BMP_temperature;BMP_pressure;BME280_temperature;BME280_humidity;BME280_pressure;Samples;Min_cycle;Max_cycle;Signal;HPM_P1;HPM_P2
2023/08/28 00:00:11;;;;;;;2.70;1.00;;;;;;;-128.00;-1.00;-1.00;18878;300;7504356;-37
2023/08/28 00:02:37;;;;;;;1.20;0.80;;;;;;;-128.00;-1.00;-1.00;18465;296;7506194;-34
2023/08/28 00:05:03;;;;;;;1.20;0.90;;;;;;;-128.00;-1.00;-1.00;18452;297;7504913;-36
2023/08/28 00:07:29;;;;;;;1.60;1.20;;;;;;;-128.00;-1.00;-1.00;18477;296;7505863;-36
2023/08/28 00:09:55;;;;;;;2.90;0.90;;;;;;;-128.00;-1.00;-1.00;18873;287;7505235;-36
2023/08/28 00:12:21;;;;;;;3.30;1.60;;;;;;;-128.00;-1.00;-1.00;18878;288;7504839;-36
2023/08/28 00:14:47;;;;;;;2.60;1.30;;;;;;;-128.00;-1.00;-1.00;18896;287;7504175;-33
2023/08/28 00:17:13;;;;;;;1.60;1.00;;;;;;;-128.00;-1.00;-1.00;18866;299;7504480;-34
2023/08/28 00:19:40;;;;;;;1.30;0.90;;;;;;;-128.00;-1.00;-1.00;18867;287;7504755;-34
2023/08/28 00:22:06;;;;;;;2.10;1.10;;;;;;;-128.00;-1.00;-1.00;18875;347;7504284;-36
2023/08/28 00:24:32;;;;;;;1.80;0.90;;;;;;;-128.00;-1.00;-1.00;18891;287;7504819;-36
2023/08/28 00:26:58;;;;;;;2.10;0.70;;;;;;;-128.00;-1.00;-1.00;18892;288;7504606;-34
2023/08/28 00:29:25;;;;;;;2.10;1.20;;;;;;;-128.00;-1.00;-1.00;18898;295;7504944;-34
2023/08/28 00:31:51;;;;;;;2.20;1.30;;;;;;;-128.00;-1.00;-1.00;18865;296;7505817;-34
2023/08/28 00:34:17;;;;;;;1.50;1.00;;;;;;;-128.00;-1.00;-1.00;18905;296;7504506;-34
2023/08/28 00:36:43;;;;;;;2.60;1.50;;;;;;;-128.00;-1.00;-1.00;18908;342;7504789;-34
2023/08/28 01:20:03;;;;;;;3.10;2.10;;;;;;;-99.31;19.20;19756.69;19603;301;8045141;-35
2023/08/28 01:22:36;;;;;;;2.80;1.80;;;;;;;-128.00;-1.00;-1.00;18127;298;7504457;-34
2023/08/28 01:25:10;;;;;;;1.50;1.20;;;;;;;-128.00;-1.00;-1.00;18460;348;7504410;-36
2023/08/28 01:27:38;;;;;;;10.40;2.40;;;;;;;-128.00;-1.00;-1.00;18460;297;7505109;-36
2023/08/28 01:30:13;;;;;;;1.20;1.00;;;;;;;-128.00;-1.00;-1.00;18465;296;7504494;-34
2023/08/28 01:32:39;;;;;;;3.80;2.20;;;;;;;-128.00;-1.00;-1.00;18493;289;7506062;-37
2023/08/28 01:35:09;;;;;;;1.70;1.40;;;;;;;-128.00;-1.00;-1.00;18443;296;7504627;-34
2023/08/28 01:37:49;;;;;;;5.50;2.40;;;;;;;-128.00;-1.00;-1.00;18451;298;7506024;-34
2023/08/28 01:40:15;;;;;;;1.90;1.50;;;;;;;-128.00;-1.00;-1.00;18485;285;7504815;-37
2023/08/28 01:42:42;;;;;;;2.10;1.80;;;;;;;-128.00;-1.00;-1.00;18467;286;7504433;-37
2023/08/28 01:45:08;;;;;;;3.00;1.70;;;;;;;-128.00;-1.00;-1.00;18474;337;7505914;-36
2023/08/28 01:47:33;;;;;;;1.10;1.00;;;;;;;-128.00;-1.00;-1.00;18465;296;7504523;-37
2023/08/28 01:50:01;;;;;;;2.70;1.90;;;;;;;-128.00;-1.00;-1.00;18472;285;7504178;-37
2023/08/28 01:52:27;;;;;;;5.00;2.30;;;;;;;-128.00;-1.00;-1.00;18857;289;7505330;-37
2023/08/28 01:54:53;;;;;;;2.20;1.50;;;;;;;-128.00;-1.00;-1.00;18890;289;7504356;-33
2023/08/28 01:57:19;;;;;;;6.70;2.40;;;;;;;-128.00;-1.00;-1.00;18875;289;7504789;-33
2023/08/28 01:59:45;;;;;;;5.10;1.90;;;;;;;-128.00;-1.00;-1.00;18891;296;7504794;-36
2023/08/28 02:02:12;;;;;;;3.40;2.20;;;;;;;-128.00;-1.00;-1.00;18845;348;7504525;-36
2023/08/28 02:04:38;;;;;;;2.60;2.20;;;;;;;-128.00;-1.00;-1.00;18897;296;7505391;-36
2023/08/28 02:07:04;;;;;;;2.00;1.80;;;;;;;-128.00;-1.00;-1.00;18866;296;7505318;-33
2023/08/28 02:09:30;;;;;;;5.80;2.90;;;;;;;-128.00;-1.00;-1.00;18872;285;7505427;-33
2023/08/28 02:11:57;;;;;;;3.20;2.70;;;;;;;-128.00;-1.00;-1.00;18852;348;7504366;-34
2023/08/28 02:14:23;;;;;;;2.70;2.40;;;;;;;-128.00;-1.00;-1.00;18865;285;7504176;-33
2023/08/28 02:16:49;;;;;;;6.40;2.40;;;;;;;-128.00;-1.00;-1.00;18880;289;7504397;-36
2023/08/28 02:19:15;;;;;;;2.60;1.80;;;;;;;-128.00;-1.00;-1.00;18876;289;7505078;-35
2023/08/28 02:21:41;;;;;;;3.80;3.30;;;;;;;-128.00;-1.00;-1.00;18899;308;7504320;-37
2023/08/28 02:24:08;;;;;;;5.60;3.80;;;;;;;-128.00;-1.00;-1.00;18888;289;7504721;-34
2023/08/28 02:26:34;;;;;;;4.80;3.20;;;;;;;-128.00;-1.00;-1.00;18901;285;7504310;-33
2023/08/28 02:29:00;;;;;;;4.80;4.10;;;;;;;-128.00;-1.00;-1.00;18879;348;7504204;-32
2023/08/28 02:31:26;;;;;;;4.90;4.10;;;;;;;-128.00;-1.00;-1.00;18886;296;7504515;-33
2023/08/28 02:33:52;;;;;;;4.70;3.30;;;;;;;-128.00;-1.00;-1.00;18862;289;7504786;-34
2023/08/28 02:36:18;;;;;;;4.40;3.60;;;;;;;-128.00;-1.00;-1.00;18877;296;7504702;-33
2023/08/28 02:38:45;;;;;;;6.10;3.10;;;;;;;-128.00;-1.00;-1.00;18883;289;7504890;-36
2023/08/28 02:41:11;;;;;;;4.00;3.60;;;;;;;-128.00;-1.00;-1.00;18881;296;7506076;-33
2023/08/28 02:43:38;;;;;;;9.10;3.20;;;;;;;-128.00;-1.00;-1.00;18866;285;7504827;-33
2023/08/28 02:46:04;;;;;;;4.80;4.10;;;;;;;-128.00;-1.00;-1.00;18473;289;7505119;-32
2023/08/28 02:48:30;;;;;;;6.60;4.90;;;;;;;-128.00;-1.00;-1.00;18459;297;7506654;-34
2023/08/28 02:50:55;;;;;;;7.10;5.30;;;;;;;-128.00;-1.00;-1.00;18472;297;7505128;-37
2023/08/28 02:53:21;;;;;;;6.40;5.30;;;;;;;-128.00;-1.00;-1.00;18474;289;7505194;-34
2023/08/28 02:56:11;;;;;;;7.00;5.80;;;;;;;-128.00;-1.00;-1.00;18886;289;7504198;-34
2023/08/28 02:58:37;;;;;;;4.70;4.20;;;;;;;-128.00;-1.00;-1.00;18471;289;7504202;-34
2023/08/28 03:01:02;;;;;;;6.30;4.80;;;;;;;-128.00;-1.00;-1.00;18450;338;7506352;-37
2023/08/28 03:03:28;;;;;;;5.80;5.10;;;;;;;-128.00;-1.00;-1.00;18454;285;7505725;-37
2023/08/28 03:05:54;;;;;;;5.40;4.20;;;;;;;-128.00;-1.00;-1.00;18873;297;7504983;-34
2023/08/28 03:08:21;;;;;;;11.40;5.40;;;;;;;-128.00;-1.00;-1.00;18867;348;7505396;-34
2023/08/28 03:10:47;;;;;;;5.10;4.50;;;;;;;-128.00;-1.00;-1.00;18884;289;7506289;-34
2023/08/28 03:13:13;;;;;;;7.30;5.70;;;;;;;-128.00;-1.00;-1.00;18857;285;7504405;-37
2023/08/28 03:15:39;;;;;;;9.60;5.60;;;;;;;-128.00;-1.00;-1.00;18872;296;7505275;-36
2023/08/28 03:18:06;;;;;;;5.90;5.30;;;;;;;-128.00;-1.00;-1.00;18872;297;7504268;-34
2023/08/28 03:20:32;;;;;;;5.80;5.00;;;;;;;-128.00;-1.00;-1.00;18877;289;7504880;-37
2023/08/28 03:22:58;;;;;;;7.90;5.30;;;;;;;-128.00;-1.00;-1.00;18853;285;7504237;-33
2023/08/28 03:25:24;;;;;;;8.40;6.10;;;;;;;-128.00;-1.00;-1.00;18845;337;7505224;-33
2023/08/28 03:27:51;;;;;;;7.10;5.90;;;;;;;-128.00;-1.00;-1.00;18882;289;7504407;-33
2023/08/28 03:30:17;;;;;;;6.40;4.90;;;;;;;-128.00;-1.00;-1.00;18875;348;7505094;-38
2023/08/28 03:32:43;;;;;;;6.90;6.20;;;;;;;-128.00;-1.00;-1.00;18849;348;7504931;-38
2023/08/28 03:35:09;;;;;;;6.00;5.00;;;;;;;-128.00;-1.00;-1.00;18866;297;7504385;-34
2023/08/28 03:37:35;;;;;;;6.70;4.90;;;;;;;-128.00;-1.00;-1.00;18867;289;7505248;-37
2023/08/28 03:40:03;;;;;;;7.70;5.10;;;;;;;-128.00;-1.00;-1.00;18868;285;7504736;-35
2023/08/28 03:42:29;;;;;;;5.70;5.10;;;;;;;-128.00;-1.00;-1.00;18445;285;7504587;-34
2023/08/28 03:44:55;;;;;;;7.30;6.30;;;;;;;-128.00;-1.00;-1.00;18864;297;7504477;-34
2023/08/28 03:47:21;;;;;;;9.00;6.10;;;;;;;-128.00;-1.00;-1.00;18858;297;7504038;-32
2023/08/28 03:49:49;;;;;;;9.90;3.80;;;;;;;-128.00;-1.00;-1.00;18451;289;7506103;-33
2023/08/28 03:52:15;;;;;;;6.00;5.50;;;;;;;-128.00;-1.00;-1.00;18872;308;7504580;-36
2023/08/28 03:54:41;;;;;;;7.20;6.40;;;;;;;-128.00;-1.00;-1.00;18879;296;7504772;-35
2023/08/28 03:57:07;;;;;;;8.70;6.50;;;;;;;-128.00;-1.00;-1.00;18878;296;7504327;-36
2023/08/28 03:59:33;;;;;;;12.10;5.90;;;;;;;-128.00;-1.00;-1.00;18888;348;7506259;-33
2023/08/28 04:02:02;;;;;;;10.20;6.20;;;;;;;-128.00;-1.00;-1.00;18877;289;7504694;-33
2023/08/28 04:04:27;;;;;;;8.10;4.40;;;;;;;-128.00;-1.00;-1.00;18462;297;7504947;-34
2023/08/28 04:06:53;;;;;;;5.10;4.30;;;;;;;-128.00;-1.00;-1.00;18453;320;7504983;-33
2023/08/28 04:09:20;;;;;;;7.80;5.40;;;;;;;-128.00;-1.00;-1.00;18855;297;7504162;-34
2023/08/28 04:11:46;;;;;;;5.40;4.90;;;;;;;-128.00;-1.00;-1.00;18470;332;7505238;-33
2023/08/28 04:14:12;;;;;;;9.40;6.20;;;;;;;-128.00;-1.00;-1.00;18864;297;7504504;-36
2023/08/28 04:16:38;;;;;;;7.70;6.00;;;;;;;-128.00;-1.00;-1.00;18870;320;7505087;-35
2023/08/28 04:19:04;;;;;;;8.90;5.30;;;;;;;-128.00;-1.00;-1.00;18849;285;7505076;-36
2023/08/28 04:21:31;;;;;;;6.90;6.20;;;;;;;-128.00;-1.00;-1.00;18878;297;7504357;-36
2023/08/28 04:23:57;;;;;;;12.40;6.30;;;;;;;-128.00;-1.00;-1.00;18880;348;7504895;-34
2023/08/28 04:26:23;;;;;;;9.30;6.00;;;;;;;-128.00;-1.00;-1.00;18863;297;7504194;-37
2023/08/28 04:28:49;;;;;;;6.80;6.00;;;;;;;-128.00;-1.00;-1.00;18883;337;7504429;-33
2023/08/28 04:31:16;;;;;;;14.20;6.50;;;;;;;-128.00;-1.00;-1.00;18879;285;7504549;-37
2023/08/28 04:33:42;;;;;;;5.90;5.20;;;;;;;-128.00;-1.00;-1.00;18462;341;7505728;-33
2023/08/28 04:36:07;;;;;;;8.80;5.80;;;;;;;-128.00;-1.00;-1.00;18460;296;7504937;-33
2023/08/28 04:38:33;;;;;;;10.70;5.10;;;;;;;-128.00;-1.00;-1.00;18465;285;7504705;-33
2023/08/28 04:40:59;;;;;;;9.00;7.30;;;;;;;-128.00;-1.00;-1.00;18466;285;7505994;-36
2023/08/28 04:43:25;;;;;;;6.60;5.90;;;;;;;-128.00;-1.00;-1.00;18866;285;7506441;-33
2023/08/28 04:45:51;;;;;;;7.20;5.40;;;;;;;-128.00;-1.00;-1.00;18879;289;7504543;-33
2023/08/28 04:48:18;;;;;;;8.90;5.90;;;;;;;-128.00;-1.00;-1.00;18868;297;7504656;-36
2023/08/28 04:50:43;;;;;;;12.10;5.30;;;;;;;-128.00;-1.00;-1.00;18453;297;7505840;-33
2023/08/28 04:53:10;;;;;;;9.80;5.90;;;;;;;-128.00;-1.00;-1.00;18498;297;7506656;-38
2023/08/28 04:55:38;;;;;;;6.10;5.50;;;;;;;-128.00;-1.00;-1.00;18868;348;7505358;-36
2023/08/28 04:58:03;;;;;;;7.10;5.10;;;;;;;-128.00;-1.00;-1.00;18464;312;7505981;-33
2023/08/28 05:00:29;;;;;;;6.80;5.90;;;;;;;-128.00;-1.00;-1.00;18445;288;7504780;-33
2023/08/28 05:02:55;;;;;;;7.70;5.70;;;;;;;-128.00;-1.00;-1.00;18899;285;7505468;-36
2023/08/28 05:05:21;;;;;;;10.90;5.90;;;;;;;-128.00;-1.00;-1.00;18862;297;7504702;-34
2023/08/28 05:07:47;;;;;;;7.40;5.40;;;;;;;-128.00;-1.00;-1.00;18852;285;7504624;-33
2023/08/28 05:10:13;;;;;;;8.10;5.70;;;;;;;-128.00;-1.00;-1.00;18881;285;7504545;-33
2023/08/28 05:12:40;;;;;;;7.50;6.80;;;;;;;-128.00;-1.00;-1.00;18869;297;7504541;-34
2023/08/28 05:15:06;;;;;;;7.30;6.60;;;;;;;-128.00;-1.00;-1.00;18854;348;7504606;-34
2023/08/28 05:17:32;;;;;;;7.10;5.20;;;;;;;-128.00;-1.00;-1.00;18474;297;7504593;-33
2023/08/28 05:19:58;;;;;;;9.20;6.80;;;;;;;-128.00;-1.00;-1.00;18882;289;7504378;-34
2023/08/28 05:22:25;;;;;;;12.20;4.90;;;;;;;-128.00;-1.00;-1.00;18880;297;7504837;-32
2023/08/28 05:24:51;;;;;;;8.80;5.80;;;;;;;-128.00;-1.00;-1.00;18876;289;7504226;-36
2023/08/28 05:27:17;;;;;;;9.20;4.90;;;;;;;-128.00;-1.00;-1.00;18871;285;7504663;-35
2023/08/28 05:29:45;;;;;;;6.80;5.70;;;;;;;-128.00;-1.00;-1.00;18878;289;7505578;-35
2023/08/28 05:32:11;;;;;;;6.90;6.20;;;;;;;-128.00;-1.00;-1.00;18442;296;7504533;-32
2023/08/28 05:34:37;;;;;;;6.90;5.90;;;;;;;-128.00;-1.00;-1.00;18867;297;7505018;-32
2023/08/28 05:37:05;;;;;;;17.40;3.60;;;;;;;-128.00;-1.00;-1.00;18463;320;7504543;-37
2023/08/28 05:39:30;;;;;;;15.80;5.50;;;;;;;-128.00;-1.00;-1.00;18465;289;7506458;-36
2023/08/28 05:41:56;;;;;;;4.60;4.10;;;;;;;-128.00;-1.00;-1.00;18854;297;7505101;-38
2023/08/28 05:44:22;;;;;;;7.00;5.80;;;;;;;-128.00;-1.00;-1.00;18856;285;7504448;-38
2023/08/28 05:46:49;;;;;;;6.30;4.80;;;;;;;-128.00;-1.00;-1.00;18868;342;7504582;-36
2023/08/28 05:49:15;;;;;;;5.40;4.50;;;;;;;-128.00;-1.00;-1.00;18881;297;7504352;-37
2023/08/28 05:51:41;;;;;;;5.00;4.50;;;;;;;-128.00;-1.00;-1.00;18862;297;7505257;-36
2023/08/28 05:54:10;;;;;;;4.40;3.70;;;;;;;-128.00;-1.00;-1.00;18481;297;7504499;-37
2023/08/28 05:56:35;;;;;;;5.80;4.60;;;;;;;-128.00;-1.00;-1.00;18465;297;7505023;-32
2023/08/28 05:59:01;;;;;;;6.60;4.50;;;;;;;-128.00;-1.00;-1.00;18901;320;7505465;-36
2023/08/28 06:01:28;;;;;;;5.80;4.60;;;;;;;-128.00;-1.00;-1.00;18894;297;7505049;-34
2023/08/28 06:03:56;;;;;;;7.80;4.90;;;;;;;-128.00;-1.00;-1.00;18862;348;7505786;-36
2023/08/28 06:06:23;;;;;;;5.00;4.50;;;;;;;-128.00;-1.00;-1.00;18497;285;7504562;-36
2023/08/28 06:08:48;;;;;;;4.60;3.40;;;;;;;-128.00;-1.00;-1.00;18459;288;7505859;-37
2023/08/28 06:11:14;;;;;;;5.60;4.30;;;;;;;-128.00;-1.00;-1.00;18479;289;7504494;-33
2023/08/28 06:13:40;;;;;;;5.00;4.40;;;;;;;-128.00;-1.00;-1.00;18492;296;7506041;-32
2023/08/28 06:16:06;;;;;;;4.90;4.50;;;;;;;-128.00;-1.00;-1.00;18468;302;7504086;-33
2023/08/28 06:18:32;;;;;;;4.30;3.40;;;;;;;-128.00;-1.00;-1.00;18865;296;7505391;-33
2023/08/28 06:20:58;;;;;;;3.50;2.10;;;;;;;-128.00;-1.00;-1.00;18881;297;7504529;-32
2023/08/28 06:23:24;;;;;;;5.40;4.30;;;;;;;-128.00;-1.00;-1.00;18871;297;7504653;-34
2023/08/28 06:25:50;;;;;;;3.60;2.70;;;;;;;-128.00;-1.00;-1.00;18886;285;7504221;-32
2023/08/28 06:28:17;;;;;;;4.80;4.50;;;;;;;-128.00;-1.00;-1.00;18876;296;7504735;-32
2023/08/28 06:30:43;;;;;;;6.20;4.50;;;;;;;-128.00;-1.00;-1.00;18849;348;7506014;-36
2023/08/28 06:33:09;;;;;;;2.20;2.00;;;;;;;-128.00;-1.00;-1.00;18875;297;7504172;-32
2023/08/28 06:35:35;;;;;;;4.50;4.10;;;;;;;-128.00;-1.00;-1.00;18910;297;7505507;-32
2023/08/28 06:38:02;;;;;;;3.70;3.00;;;;;;;-128.00;-1.00;-1.00;18887;337;7505861;-32
2023/08/28 06:40:28;;;;;;;3.10;2.40;;;;;;;-128.00;-1.00;-1.00;18868;348;7504818;-32
2023/08/28 06:42:54;;;;;;;4.70;3.30;;;;;;;-128.00;-1.00;-1.00;18874;297;7504920;-33
2023/08/28 06:45:20;;;;;;;7.30;2.20;;;;;;;-128.00;-1.00;-1.00;18848;297;7504466;-36
2023/08/28 06:47:47;;;;;;;3.20;2.50;;;;;;;-128.00;-1.00;-1.00;18851;297;7504959;-37
2023/08/28 06:50:13;;;;;;;3.80;3.00;;;;;;;-128.00;-1.00;-1.00;18864;285;7504275;-36
2023/08/28 06:52:39;;;;;;;10.10;3.40;;;;;;;-128.00;-1.00;-1.00;18883;297;7504419;-33
2023/08/28 06:55:06;;;;;;;4.50;2.60;;;;;;;-128.00;-1.00;-1.00;18476;297;7504363;-34
2023/08/28 06:57:32;;;;;;;3.40;3.10;;;;;;;-128.00;-1.00;-1.00;18474;285;7505404;-34
2023/08/28 06:59:57;;;;;;;3.10;2.80;;;;;;;-128.00;-1.00;-1.00;18471;308;7504787;-36
2023/08/28 07:02:23;;;;;;;3.80;3.50;;;;;;;-128.00;-1.00;-1.00;18467;285;7506440;-33
2023/08/28 07:04:48;;;;;;;7.50;2.50;;;;;;;-128.00;-1.00;-1.00;18466;305;7504535;-33
2023/08/28 07:07:20;;;;;;;3.80;2.50;;;;;;;-128.00;-1.00;-1.00;18438;297;7506049;-36
2023/08/28 07:09:46;;;;;;;2.30;1.60;;;;;;;-128.00;-1.00;-1.00;18461;305;7505420;-36
2023/08/28 07:12:12;;;;;;;1.80;1.20;;;;;;;-128.00;-1.00;-1.00;18488;308;7504374;-36
2023/08/28 07:14:37;;;;;;;4.80;2.70;;;;;;;-128.00;-1.00;-1.00;18482;348;7504962;-36
2023/08/28 07:17:03;;;;;;;4.30;2.10;;;;;;;-128.00;-1.00;-1.00;18459;338;7504714;-33
2023/08/28 07:19:29;;;;;;;6.70;2.60;;;;;;;-128.00;-1.00;-1.00;18886;348;7504618;-32
2023/08/28 07:21:59;;;;;;;3.00;2.70;;;;;;;-128.00;-1.00;-1.00;18888;285;7504435;-32
2023/08/28 07:24:25;;;;;;;1.70;1.40;;;;;;;-128.00;-1.00;-1.00;18469;297;7504309;-36
2023/08/28 07:26:51;;;;;;;2.40;2.20;;;;;;;-128.00;-1.00;-1.00;18464;320;7504413;-32
2023/08/28 07:29:17;;;;;;;2.00;1.80;;;;;;;-128.00;-1.00;-1.00;18477;289;7505972;-33
2023/08/28 07:31:43;;;;;;;2.90;2.30;;;;;;;-128.00;-1.00;-1.00;18474;348;7504636;-35
2023/08/28 07:34:08;;;;;;;2.30;1.80;;;;;;;-128.00;-1.00;-1.00;18469;297;7504671;-33
2023/08/28 07:36:37;;;;;;;6.60;2.30;;;;;;;-128.00;-1.00;-1.00;18890;348;7505353;-32
2023/08/28 07:39:04;;;;;;;1.30;1.10;;;;;;;-128.00;-1.00;-1.00;18495;348;7505270;-36
2023/08/28 07:41:30;;;;;;;1.80;1.60;;;;;;;-128.00;-1.00;-1.00;18450;289;7505692;-33
2023/08/28 07:43:55;;;;;;;3.50;2.50;;;;;;;-128.00;-1.00;-1.00;18458;285;7506169;-36
2023/08/28 07:46:21;;;;;;;2.20;1.80;;;;;;;-128.00;-1.00;-1.00;18852;348;7504667;-33
2023/08/28 07:48:47;;;;;;;5.00;1.90;;;;;;;-128.00;-1.00;-1.00;18875;285;7504776;-33
2023/08/28 07:51:14;;;;;;;3.10;2.00;;;;;;;-128.00;-1.00;-1.00;18860;341;7504372;-36
2023/08/28 07:53:40;;;;;;;2.30;2.00;;;;;;;-128.00;-1.00;-1.00;18861;285;7504818;-36
2023/08/28 07:56:06;;;;;;;2.30;1.30;;;;;;;-128.00;-1.00;-1.00;18449;297;7504348;-34
2023/08/28 07:58:33;;;;;;;1.40;1.30;;;;;;;-128.00;-1.00;-1.00;18456;296;7504899;-33
2023/08/28 08:00:59;;;;;;;6.00;2.20;;;;;;;-128.00;-1.00;-1.00;18467;285;7504303;-33
2023/08/28 08:03:25;;;;;;;3.90;2.30;;;;;;;-128.00;-1.00;-1.00;18465;338;7505136;-36
2023/08/28 08:05:52;;;;;;;2.20;2.00;;;;;;;-128.00;-1.00;-1.00;18454;320;7504457;-36
2023/08/28 08:08:17;;;;;;;2.80;1.90;;;;;;;-128.00;-1.00;-1.00;18452;297;7506644;-32
2023/08/28 08:10:43;;;;;;;2.40;1.60;;;;;;;-128.00;-1.00;-1.00;18449;297;7504673;-36
2023/08/28 08:13:09;;;;;;;9.40;1.90;;;;;;;-128.00;-1.00;-1.00;18862;297;7504607;-35
2023/08/28 08:15:37;;;;;;;2.00;1.60;;;;;;;-128.00;-1.00;-1.00;18882;285;7505478;-32
2023/08/28 08:18:03;;;;;;;1.90;1.20;;;;;;;-128.00;-1.00;-1.00;18461;289;7504760;-33
2023/08/28 08:20:30;;;;;;;1.50;1.00;;;;;;;-128.00;-1.00;-1.00;18464;297;7504781;-34
2023/08/28 08:22:56;;;;;;;1.30;1.10;;;;;;;-128.00;-1.00;-1.00;18466;297;7504583;-32
2023/08/28 08:25:22;;;;;;;3.00;1.20;;;;;;;-128.00;-1.00;-1.00;18871;285;7504583;-36
2023/08/28 08:27:49;;;;;;;2.80;2.00;;;;;;;-128.00;-1.00;-1.00;18855;324;7505543;-33
2023/08/28 08:30:15;;;;;;;2.30;1.00;;;;;;;-128.00;-1.00;-1.00;18474;337;7504350;-36
2023/08/28 08:32:43;;;;;;;3.90;1.90;;;;;;;-128.00;-1.00;-1.00;18483;297;7504397;-36
2023/08/28 08:35:09;;;;;;;2.10;1.80;;;;;;;-128.00;-1.00;-1.00;18469;348;7504320;-33
2023/08/28 08:37:35;;;;;;;5.90;1.90;;;;;;;-128.00;-1.00;-1.00;18464;332;7506230;-32
2023/08/28 08:40:02;;;;;;;2.80;1.10;;;;;;;-128.00;-1.00;-1.00;18465;297;7504764;-33
2023/08/28 08:42:28;;;;;;;1.60;1.10;;;;;;;-128.00;-1.00;-1.00;18468;297;7506372;-37
2023/08/28 08:44:54;;;;;;;2.30;1.70;;;;;;;-128.00;-1.00;-1.00;18854;285;7504898;-33
2023/08/28 08:47:20;;;;;;;3.90;1.80;;;;;;;-128.00;-1.00;-1.00;18875;297;7504556;-32
2023/08/28 08:49:54;;;;;;;1.90;1.50;;;;;;;-128.00;-1.00;-1.00;18473;296;7504667;-36
2023/08/28 08:52:20;;;;;;;3.60;2.00;;;;;;;-128.00;-1.00;-1.00;18448;350;7505780;-36
2023/08/28 08:54:46;;;;;;;4.30;2.20;;;;;;;-128.00;-1.00;-1.00;18448;289;7505998;-36
2023/08/28 08:57:20;;;;;;;4.30;2.50;;;;;;;-128.00;-1.00;-1.00;18462;348;7506224;-32
2023/08/28 08:59:45;;;;;;;2.80;1.50;;;;;;;-128.00;-1.00;-1.00;18473;289;7504470;-37
2023/08/28 09:02:11;;;;;;;3.20;2.60;;;;;;;-128.00;-1.00;-1.00;18870;296;7505302;-33
2023/08/28 09:04:37;;;;;;;3.10;2.60;;;;;;;-128.00;-1.00;-1.00;18877;297;7504481;-36
2023/08/28 09:07:04;;;;;;;7.10;2.70;;;;;;;-128.00;-1.00;-1.00;18853;297;7504895;-32
2023/08/28 09:09:31;;;;;;;1.70;1.60;;;;;;;-128.00;-1.00;-1.00;18466;322;7504559;-36
2023/08/28 09:11:57;;;;;;;2.40;1.80;;;;;;;-128.00;-1.00;-1.00;18486;296;7507063;-32
2023/08/28 09:14:23;;;;;;;2.10;1.90;;;;;;;-128.00;-1.00;-1.00;18471;296;7506032;-32
2023/08/28 09:16:48;;;;;;;6.10;1.70;;;;;;;-128.00;-1.00;-1.00;18475;289;7504534;-32
2023/08/28 09:19:14;;;;;;;3.40;3.10;;;;;;;-128.00;-1.00;-1.00;18464;309;7504691;-33
2023/08/28 09:21:45;;;;;;;3.30;1.90;;;;;;;-128.00;-1.00;-1.00;18868;296;7504291;-36
2023/08/28 09:24:10;;;;;;;3.40;1.90;;;;;;;-128.00;-1.00;-1.00;17995;297;7504314;-32
2023/08/28 09:26:39;;;;;;;7.30;2.10;;;;;;;-128.00;-1.00;-1.00;18469;309;7505722;-31
2023/08/28 09:29:08;;;;;;;7.30;1.70;;;;;;;-128.00;-1.00;-1.00;18472;285;7506983;-32
2023/08/28 09:31:36;;;;;;;3.10;1.70;;;;;;;-128.00;-1.00;-1.00;18498;297;7504945;-36
2023/08/28 09:34:05;;;;;;;1.30;1.20;;;;;;;-128.00;-1.00;-1.00;18472;285;7505850;-36
2023/08/28 09:36:35;;;;;;;0.90;0.70;;;;;;;-128.00;-1.00;-1.00;18473;285;7505839;-31
2023/08/28 09:39:04;;;;;;;1.30;1.00;;;;;;;-128.00;-1.00;-1.00;18479;297;7506442;-32
2023/08/28 09:41:49;;;;;;;1.00;0.90;;;;;;;-128.00;-1.00;-1.00;18487;297;7506066;-36
2023/08/28 09:44:19;;;;;;;0.50;0.40;;;;;;;-128.00;-1.00;-1.00;18504;341;7505813;-36
2023/08/28 09:46:46;;;;;;;7.20;2.30;;;;;;;-128.00;-1.00;-1.00;18482;341;7506045;-36
2023/08/28 09:49:13;;;;;;;1.90;1.70;;;;;;;-128.00;-1.00;-1.00;18479;289;7505569;-32
2023/08/28 09:51:43;;;;;;;1.50;1.00;;;;;;;-128.00;-1.00;-1.00;18478;297;7505731;-32
2023/08/28 09:54:10;;;;;;;0.60;0.50;;;;;;;-128.00;-1.00;-1.00;18459;289;7506147;-36
2023/08/28 09:56:39;;;;;;;1.50;0.90;;;;;;;-128.00;-1.00;-1.00;18460;297;7504564;-31
2023/08/28 09:59:06;;;;;;;4.20;2.10;;;;;;;-128.00;-1.00;-1.00;18468;297;7504268;-32
2023/08/28 10:01:33;;;;;;;2.70;1.40;;;;;;;-128.00;-1.00;-1.00;18461;348;7504826;-36
2023/08/28 10:04:02;;;;;;;0.70;0.60;;;;;;;-128.00;-1.00;-1.00;18473;296;7504364;-35
2023/08/28 10:06:28;;;;;;;1.30;1.10;;;;;;;-128.00;-1.00;-1.00;18486;297;7505247;-35
2023/08/28 10:08:55;;;;;;;3.10;1.10;;;;;;;-128.00;-1.00;-1.00;18493;285;7504831;-35
2023/08/28 10:11:21;;;;;;;1.20;0.60;;;;;;;-128.00;-1.00;-1.00;18478;297;7504771;-35
2023/08/28 10:13:46;;;;;;;1.90;0.90;;;;;;;-128.00;-1.00;-1.00;18461;308;7505575;-36
2023/08/28 10:16:15;;;;;;;6.70;2.20;;;;;;;-128.00;-1.00;-1.00;18487;296;7506257;-35
2023/08/28 10:18:47;;;;;;;4.10;1.50;;;;;;;-128.00;-1.00;-1.00;18489;289;7505911;-31
2023/08/28 10:21:12;;;;;;;;;;;;;;;-128.00;-1.00;-1.00;18437;341;7507141;-35
2023/08/28 10:23:38;;;;;;;1.90;1.20;;;;;;;-128.00;-1.00;-1.00;18451;289;7506290;-32
2023/08/28 10:26:04;;;;;;;2.70;1.70;;;;;;;-128.00;-1.00;-1.00;18493;320;7505906;-32
2023/08/28 10:28:29;;;;;;;2.00;1.70;;;;;;;-128.00;-1.00;-1.00;18451;348;7504887;-36
2023/08/28 10:30:55;;;;;;;1.70;1.30;;;;;;;-128.00;-1.00;-1.00;18470;297;7505892;-32
2023/08/28 10:33:22;;;;;;;0.70;0.60;;;;;;;-128.00;-1.00;-1.00;18465;348;7504200;-32
2023/08/28 10:35:52;;;;;;;1.40;1.30;;;;;;;-128.00;-1.00;-1.00;18483;297;7506797;-36
2023/08/28 10:38:19;;;;;;;1.60;1.30;;;;;;;-128.00;-1.00;-1.00;18446;296;7504558;-35
2023/08/28 10:40:47;;;;;;;1.60;1.30;;;;;;;-128.00;-1.00;-1.00;18466;296;7504635;-36
2023/08/28 10:43:12;;;;;;;3.30;1.00;;;;;;;-128.00;-1.00;-1.00;18471;285;7505047;-32
2023/08/28 10:45:38;;;;;;;1.80;1.40;;;;;;;-128.00;-1.00;-1.00;18454;341;7504660;-36
2023/08/28 10:48:05;;;;;;;1.40;0.90;;;;;;;-128.00;-1.00;-1.00;18876;296;7504320;-32
2023/08/28 10:50:37;;;;;;;2.20;2.00;;;;;;;-128.00;-1.00;-1.00;18491;289;7505034;-36
2023/08/28 10:53:04;;;;;;;1.40;1.30;;;;;;;-128.00;-1.00;-1.00;18497;296;7504368;-36
2023/08/28 10:55:29;;;;;;;1.80;1.10;;;;;;;-128.00;-1.00;-1.00;18466;297;7504832;-36
2023/08/28 10:58:04;;;;;;;3.00;0.90;;;;;;;-128.00;-1.00;-1.00;18474;322;7504180;-36
2023/08/28 11:00:30;;;;;;;1.80;1.40;;;;;;;-128.00;-1.00;-1.00;18479;285;7504322;-36
2023/08/28 11:03:08;;;;;;;1.80;1.10;;;;;;;-128.00;-1.00;-1.00;18488;289;7506076;-31
2023/08/28 11:05:36;;;;;;;2.80;1.80;;;;;;;-128.00;-1.00;-1.00;18475;297;7504835;-37
2023/08/28 11:08:04;;;;;;;3.40;1.20;;;;;;;-128.00;-1.00;-1.00;18479;285;7505187;-31
2023/08/28 11:10:30;;;;;;;1.50;1.40;;;;;;;-128.00;-1.00;-1.00;18469;297;7506177;-37
2023/08/28 11:13:05;;;;;;;2.00;1.80;;;;;;;-128.00;-1.00;-1.00;18476;308;7505232;-35
2023/08/28 11:15:39;;;;;;;2.20;2.00;;;;;;;-128.00;-1.00;-1.00;18448;289;7505998;-31
2023/08/28 11:18:29;;;;;;;2.00;1.50;;;;;;;-128.00;-1.00;-1.00;18489;285;7504595;-35
2023/08/28 11:21:03;;;;;;;1.50;1.40;;;;;;;-128.00;-1.00;-1.00;18460;297;7504875;-32
2023/08/28 11:23:36;;;;;;;2.50;1.70;;;;;;;-128.00;-1.00;-1.00;18486;289;7504705;-32
2023/08/28 11:26:25;;;;;;;2.40;2.10;;;;;;;-128.00;-1.00;-1.00;18481;289;7504094;-36
2023/08/28 11:28:51;;;;;;;2.70;2.50;;;;;;;-128.00;-1.00;-1.00;18476;285;7506679;-32
2023/08/28 11:31:19;;;;;;;2.90;2.60;;;;;;;-128.00;-1.00;-1.00;18457;285;7504471;-32
2023/08/28 11:33:46;;;;;;;2.60;2.40;;;;;;;-128.00;-1.00;-1.00;18488;297;7505232;-36
2023/08/28 11:36:19;;;;;;;3.70;3.40;;;;;;;-128.00;-1.00;-1.00;18447;285;7504764;-32
2023/08/28 11:38:46;;;;;;;2.00;1.90;;;;;;;-128.00;-1.00;-1.00;18497;288;7506801;-36
2023/08/28 11:41:12;;;;;;;3.10;2.90;;;;;;;-128.00;-1.00;-1.00;18467;296;7505322;-36
2023/08/28 11:43:39;;;;;;;2.70;2.50;;;;;;;-128.00;-1.00;-1.00;18477;297;7505245;-32
2023/08/28 11:46:06;;;;;;;3.00;2.30;;;;;;;-128.00;-1.00;-1.00;18446;313;7504699;-36
2023/08/28 11:48:36;;;;;;;2.60;2.40;;;;;;;-128.00;-1.00;-1.00;18473;296;7504438;-36
2023/08/28 11:51:03;;;;;;;3.40;1.90;;;;;;;-128.00;-1.00;-1.00;18445;338;7504503;-32
2023/08/28 11:53:34;;;;;;;2.50;2.10;;;;;;;-128.00;-1.00;-1.00;18451;332;7504295;-36
2023/08/28 11:56:01;;;;;;;7.40;2.80;;;;;;;-128.00;-1.00;-1.00;18484;285;7506554;-36
2023/08/28 11:58:27;;;;;;;4.60;2.50;;;;;;;-128.00;-1.00;-1.00;18477;289;7505033;-36
2023/08/28 12:00:53;;;;;;;3.60;3.30;;;;;;;-128.00;-1.00;-1.00;18473;289;7505143;-36
2023/08/28 12:03:19;;;;;;;2.80;2.60;;;;;;;-128.00;-1.00;-1.00;18444;289;7505838;-32
2023/08/28 12:05:45;;;;;;;22.40;3.80;;;;;;;-128.00;-1.00;-1.00;18467;285;7505996;-33
2023/08/28 12:08:11;;;;;;;2.50;2.30;;;;;;;-128.00;-1.00;-1.00;18468;297;7504748;-32
2023/08/28 12:10:37;;;;;;;1.60;1.50;;;;;;;-128.00;-1.00;-1.00;18491;285;7506058;-33
2023/08/28 12:13:03;;;;;;;1.60;1.40;;;;;;;-128.00;-1.00;-1.00;18451;304;7504315;-32